Time;durP1;ratioP1;P1;durP2;ratioP2;P2;SDS_P1;SDS_P2;PMS_P1;PMS_P2;Temp;Humidity;BMP_temperature;BMP_pressure;BME280_temperature;BME280_humidity;BME280_pressure;Samples;Min_cycle;Max_cycle;Signal;HPM_P1;HPM_P2
2023/08/08 00:00:16;;;;;;;;;;;22.60;54.10;;;;;;5034276;28;89405;-54
2023/08/08 00:02:42;;;;;;;;;;;22.60;54.20;;;;;;5029512;28;87824;-55
2023/08/08 00:05:08;;;;;;;;;;;22.60;54.20;;;;;;5031859;28;86500;-55
2023/08/08 00:07:34;;;;;;;;;;;22.60;54.20;;;;;;5032100;28;87023;-54
2023/08/08 00:09:59;;;;;;;;;;;22.60;54.30;;;;;;5030962;28;87501;-53
2023/08/08 00:12:25;;;;;;;;;;;22.50;54.20;;;;;;5027931;28;89046;-52
2023/08/08 00:14:50;;;;;;;;;;;22.50;54.20;;;;;;5035196;27;87141;-55
2023/08/08 00:17:16;;;;;;;;;;;22.50;54.30;;;;;;5033885;28;87652;-54
2023/08/08 00:19:41;;;;;;;;;;;22.50;54.30;;;;;;5036467;28;88378;-51
2023/08/08 00:22:07;;;;;;;;;;;22.50;54.20;;;;;;5036765;28;87019;-52
2023/08/08 00:24:33;;;;;;;;;;;22.50;54.20;;;;;;5035721;28;88187;-52
2023/08/08 00:26:59;;;;;;;;;;;22.50;54.30;;;;;;5033993;28;87409;-54
2023/08/08 00:29:24;;;;;;;;;;;22.50;54.30;;;;;;5035207;28;87592;-55
2023/08/08 00:31:50;;;;;;;;;;;22.50;54.30;;;;;;5035989;28;88041;-53
2023/08/08 00:34:15;;;;;;;;;;;22.50;54.30;;;;;;5034172;28;87512;-57
2023/08/08 00:36:41;;;;;;;;;;;22.40;54.30;;;;;;5035870;28;88026;-56
2023/08/08 00:39:07;;;;;;;;;;;22.40;54.30;;;;;;5033057;28;88167;-56
2023/08/08 00:41:33;;;;;;;;;;;22.40;54.40;;;;;;5030769;28;87109;-54
2023/08/08 00:43:58;;;;;;;;;;;22.40;54.40;;;;;;5038904;28;88163;-56
2023/08/08 00:46:24;;;;;;;;;;;22.40;54.40;;;;;;5031998;28;87194;-52
2023/08/08 00:48:51;;;;;;;;;;;22.40;54.30;;;;;;5035424;28;88867;-55
2023/08/08 00:51:17;;;;;;;;;;;22.40;54.40;;;;;;5033759;28;87974;-57
2023/08/08 00:53:43;;;;;;;;;;;22.40;54.40;;;;;;5035512;28;86428;-56
2023/08/08 00:56:10;;;;;;;;;;;22.40;54.30;;;;;;5034592;28;87015;-57
2023/08/08 00:58:35;;;;;;;;;;;22.40;54.50;;;;;;5033357;28;89343;-55
2023/08/08 01:01:01;;;;;;;;;;;22.40;54.60;;;;;;5034416;28;88093;-57
2023/08/08 01:03:27;;;;;;;;;;;22.30;54.40;;;;;;5032884;28;88242;-53
2023/08/08 01:06:14;;;;;;;;;;;22.30;54.40;;;;;;5038698;28;87844;-52
2023/08/08 01:08:42;;;;;;;;;;;22.30;54.40;;;;;;5035650;28;88810;-55
2023/08/08 01:11:08;;;;;;;;;;;22.30;54.50;;;;;;5033167;28;87030;-57
2023/08/08 01:13:35;;;;;;;;;;;22.30;54.50;;;;;;5032328;28;87126;-56
2023/08/08 01:16:03;;;;;;;;;;;22.30;54.50;;;;;;5034900;28;87347;-58
2023/08/08 01:18:29;;;;;;;;;;;22.30;54.50;;;;;;5033499;28;87331;-54
2023/08/08 01:20:55;;;;;;;;;;;22.30;54.50;;;;;;5034531;28;87032;-55
2023/08/08 01:23:26;;;;;;;;;;;22.20;54.50;;;;;;5034586;28;87489;-53
2023/08/08 01:25:51;;;;;;;;;;;22.20;54.60;;;;;;5032419;28;89059;-55
2023/08/08 01:28:21;;;;;;;;;;;22.20;54.50;;;;;;5033644;28;88457;-56
2023/08/08 01:30:46;;;;;;;;;;;22.20;54.50;;;;;;5033963;28;88031;-57
2023/08/08 01:33:12;;;;;;;;;;;22.20;54.50;;;;;;5033460;28;87162;-53
2023/08/08 01:35:41;;;;;;;;;;;22.20;54.50;;;;;;5035048;28;87442;-54
2023/08/08 01:38:13;;;;;;;;;;;22.20;54.50;;;;;;5032738;28;87921;-54
2023/08/08 01:40:40;;;;;;;;;;;22.20;54.50;;;;;;5027777;28;87112;-54
2023/08/08 01:43:07;;;;;;;;;;;22.20;54.50;;;;;;5030419;28;87283;-55
2023/08/08 01:45:32;;;;;;;;;;;22.10;54.50;;;;;;5034144;28;89634;-56
2023/08/08 01:47:58;;;;;;;;;;;22.10;54.40;;;;;;5034292;28;87137;-54
2023/08/08 01:50:23;;;;;;;;;;;22.10;54.50;;;;;;5031066;28;89260;-54
2023/08/08 01:52:49;;;;;;;;;;;22.10;54.50;;;;;;5035659;28;87139;-55
2023/08/08 01:55:14;;;;;;;;;;;22.10;54.50;;;;;;5032465;28;87414;-56
2023/08/08 01:57:40;;;;;;;;;;;22.10;54.50;;;;;;5033095;28;88106;-52
2023/08/08 02:00:06;;;;;;;;;;;22.00;54.50;;;;;;5033128;28;87236;-58
2023/08/08 02:02:31;;;;;;;;;;;22.00;54.60;;;;;;5032586;28;87848;-55
2023/08/08 02:04:57;;;;;;;;;;;22.00;54.60;;;;;;5033431;28;88182;-56
2023/08/08 02:07:23;;;;;;;;;;;22.00;54.50;;;;;;5033599;28;86324;-56
2023/08/08 02:09:50;;;;;;;;;;;22.00;54.40;;;;;;5037358;28;87362;-53
2023/08/08 02:12:16;;;;;;;;;;;22.00;54.50;;;;;;5031442;28;87654;-54
2023/08/08 02:14:42;;;;;;;;;;;22.00;54.50;;;;;;5034479;28;88070;-57
2023/08/08 02:17:07;;;;;;;;;;;22.00;54.40;;;;;;5031330;28;88207;-56
2023/08/08 02:19:33;;;;;;;;;;;21.90;54.40;;;;;;5029996;28;87142;-55
2023/08/08 02:21:58;;;;;;;;;;;21.90;54.50;;;;;;5034440;28;88878;-56
2023/08/08 02:24:24;;;;;;;;;;;21.90;54.50;;;;;;5032001;28;88217;-57
2023/08/08 02:26:49;;;;;;;;;;;21.90;54.50;;;;;;5034016;28;87661;-57
2023/08/08 02:29:15;;;;;;;;;;;21.90;54.50;;;;;;5032324;28;87385;-52
2023/08/08 02:31:40;;;;;;;;;;;21.90;54.50;;;;;;5036263;28;87837;-54
2023/08/08 02:34:06;;;;;;;;;;;21.90;54.40;;;;;;5030090;28;87229;-54
2023/08/08 02:36:33;;;;;;;;;;;21.90;54.40;;;;;;5033887;28;88148;-54
2023/08/08 02:38:58;;;;;;;;;;;21.80;54.50;;;;;;5031000;28;88021;-53
2023/08/08 02:41:24;;;;;;;;;;;21.80;54.50;;;;;;5034825;28;88275;-54
2023/08/08 02:43:49;;;;;;;;;;;21.80;54.50;;;;;;5031326;28;87406;-55
2023/08/08 02:46:15;;;;;;;;;;;21.80;54.50;;;;;;5031622;28;87209;-54
2023/08/08 02:48:40;;;;;;;;;;;21.80;54.60;;;;;;5032032;28;87089;-54
2023/08/08 02:51:06;;;;;;;;;;;21.80;54.50;;;;;;5032025;28;88031;-56
2023/08/08 02:53:31;;;;;;;;;;;21.70;54.50;;;;;;5036194;28;87247;-52
2023/08/08 02:55:57;;;;;;;;;;;21.70;54.60;;;;;;5033078;28;86561;-54
2023/08/08 02:58:22;;;;;;;;;;;21.70;54.50;;;;;;5030266;28;87130;-55
2023/08/08 03:00:48;;;;;;;;;;;21.70;54.50;;;;;;5031902;28;87341;-53
2023/08/08 03:03:14;;;;;;;;;;;21.70;54.60;;;;;;5029709;28;90306;-57
2023/08/08 03:05:39;;;;;;;;;;;21.70;54.50;;;;;;5034201;28;87093;-51
2023/08/08 03:08:05;;;;;;;;;;;21.70;54.50;;;;;;5030615;28;88752;-55
2023/08/08 03:10:31;;;;;;;;;;;21.70;54.50;;;;;;5033556;28;89304;-54
2023/08/08 03:12:56;;;;;;;;;;;21.70;54.50;;;;;;5031802;28;87170;-58
2023/08/08 03:15:21;;;;;;;;;;;21.60;54.60;;;;;;5034346;28;87052;-56
2023/08/08 03:17:47;;;;;;;;;;;21.60;54.50;;;;;;5033081;28;87206;-52
2023/08/08 03:20:12;;;;;;;;;;;21.60;54.60;;;;;;5030992;28;87217;-57
2023/08/08 03:22:38;;;;;;;;;;;21.60;54.60;;;;;;5031520;28;88049;-54
2023/08/08 03:25:04;;;;;;;;;;;21.60;54.60;;;;;;5033344;28;87232;-55
2023/08/08 03:27:30;;;;;;;;;;;21.60;54.60;;;;;;5030401;28;88155;-52
2023/08/08 03:29:55;;;;;;;;;;;21.60;54.60;;;;;;5029236;28;88109;-56
2023/08/08 03:32:21;;;;;;;;;;;21.60;54.60;;;;;;5034017;28;87581;-56
2023/08/08 03:34:47;;;;;;;;;;;21.50;54.60;;;;;;5032167;28;87647;-55
2023/08/08 03:37:12;;;;;;;;;;;21.50;54.60;;;;;;5033323;28;87187;-56
2023/08/08 03:39:38;;;;;;;;;;;21.50;54.60;;;;;;5030322;28;87878;-57
2023/08/08 03:42:04;;;;;;;;;;;21.50;54.60;;;;;;5018257;28;88755;-57
2023/08/08 03:44:29;;;;;;;;;;;21.50;54.60;;;;;;5028910;28;86377;-56
2023/08/08 03:46:55;;;;;;;;;;;21.50;54.70;;;;;;5032391;28;87005;-56
2023/08/08 03:49:20;;;;;;;;;;;21.50;54.60;;;;;;5029067;28;88121;-53
2023/08/08 03:51:47;;;;;;;;;;;21.50;54.70;;;;;;5022174;28;88107;-51
2023/08/08 03:54:13;;;;;;;;;;;21.50;54.70;;;;;;5026671;28;89668;-54
2023/08/08 03:56:38;;;;;;;;;;;21.50;54.70;;;;;;5032478;28;88717;-53
2023/08/08 03:59:04;;;;;;;;;;;21.50;54.80;;;;;;5025878;28;87441;-55
2023/08/08 04:01:29;;;;;;;;;;;21.40;54.80;;;;;;5026325;28;87992;-54
2023/08/08 04:03:55;;;;;;;;;;;21.40;54.80;;;;;;5030026;28;87549;-54
2023/08/08 04:06:20;;;;;;;;;;;21.40;54.90;;;;;;5030130;28;88101;-59
2023/08/08 04:08:46;;;;;;;;;;;21.40;54.80;;;;;;5026929;28;87479;-55
2023/08/08 04:11:11;;;;;;;;;;;21.40;54.90;;;;;;5028015;28;87181;-52
2023/08/08 04:13:36;;;;;;;;;;;21.40;54.90;;;;;;5029353;28;87514;-55
2023/08/08 04:16:02;;;;;;;;;;;21.40;54.90;;;;;;5031691;28;89071;-52
2023/08/08 04:18:28;;;;;;;;;;;21.30;54.80;;;;;;5030876;28;87920;-56
2023/08/08 04:20:53;;;;;;;;;;;21.30;54.90;;;;;;5020331;28;88206;-57
2023/08/08 04:23:19;;;;;;;;;;;21.30;54.80;;;;;;5025907;28;87432;-54
2023/08/08 04:25:44;;;;;;;;;;;21.30;54.80;;;;;;5028888;28;88113;-51
2023/08/08 04:28:10;;;;;;;;;;;21.30;54.80;;;;;;5017753;28;87860;-56
2023/08/08 04:30:35;;;;;;;;;;;21.30;54.90;;;;;;5023981;28;87429;-50
2023/08/08 04:33:01;;;;;;;;;;;21.30;54.80;;;;;;5031975;28;87511;-58
2023/08/08 04:35:26;;;;;;;;;;;21.30;54.80;;;;;;5026490;28;88239;-53
2023/08/08 04:37:52;;;;;;;;;;;21.30;54.90;;;;;;5023795;28;87172;-57
2023/08/08 04:40:17;;;;;;;;;;;21.20;54.90;;;;;;5027454;28;88046;-54
2023/08/08 04:42:43;;;;;;;;;;;21.30;54.90;;;;;;5029682;28;87855;-57
2023/08/08 04:45:08;;;;;;;;;;;21.20;54.80;;;;;;5027667;28;87127;-56
2023/08/08 04:47:34;;;;;;;;;;;21.20;54.80;;;;;;5022746;28;88435;-55
2023/08/08 04:49:59;;;;;;;;;;;21.20;54.90;;;;;;5025673;28;87329;-54
2023/08/08 04:52:25;;;;;;;;;;;21.20;54.90;;;;;;5030372;28;87397;-56
2023/08/08 04:54:50;;;;;;;;;;;21.20;54.80;;;;;;5027986;28;87851;-58
2023/08/08 04:57:16;;;;;;;;;;;21.20;54.90;;;;;;5027809;28;86536;-52
2023/08/08 04:59:42;;;;;;;;;;;21.20;55.00;;;;;;5024344;28;87001;-58
2023/08/08 05:02:08;;;;;;;;;;;21.20;54.90;;;;;;5034471;28;88143;-58
2023/08/08 05:04:33;;;;;;;;;;;21.20;55.00;;;;;;5028272;28;88146;-54
2023/08/08 05:06:59;;;;;;;;;;;21.10;54.90;;;;;;5027681;28;88077;-57
2023/08/08 05:09:27;;;;;;;;;;;21.10;54.90;;;;;;5030984;28;87413;-58
2023/08/08 05:11:53;;;;;;;;;;;21.10;54.90;;;;;;5028954;28;87653;-52
2023/08/08 05:14:18;;;;;;;;;;;21.10;55.00;;;;;;5026909;27;90129;-55
2023/08/08 05:16:44;;;;;;;;;;;21.10;54.90;;;;;;5027781;28;87189;-54
2023/08/08 05:19:09;;;;;;;;;;;21.10;54.90;;;;;;5029418;28;87584;-51
2023/08/08 05:21:35;;;;;;;;;;;21.10;54.90;;;;;;5034742;28;87365;-55
2023/08/08 05:24:00;;;;;;;;;;;21.10;54.80;;;;;;5028735;28;87781;-55
2023/08/08 05:26:26;;;;;;;;;;;21.10;54.80;;;;;;5025140;28;88526;-57
2023/08/08 05:28:52;;;;;;;;;;;21.10;54.70;;;;;;5028642;28;88127;-56
2023/08/08 05:31:17;;;;;;;;;;;21.10;54.80;;;;;;5034319;28;89876;-54
2023/08/08 05:33:43;;;;;;;;;;;21.10;55.40;;;;;;5024071;28;88979;-55
2023/08/08 05:36:08;;;;;;;;;;;21.00;54.80;;;;;;5024391;28;87251;-54
2023/08/08 05:38:33;;;;;;;;;;;21.00;54.80;;;;;;5031087;28;87366;-58
2023/08/08 05:40:59;;;;;;;;;;;21.00;54.80;;;;;;5031883;28;87800;-56
2023/08/08 05:43:24;;;;;;;;;;;21.00;54.80;;;;;;5026968;28;88355;-51
2023/08/08 05:45:50;;;;;;;;;;;21.00;54.80;;;;;;5024164;28;87518;-58
2023/08/08 05:48:16;;;;;;;;;;;21.00;54.80;;;;;;5033953;28;87114;-57
2023/08/08 05:50:42;;;;;;;;;;;21.00;54.80;;;;;;5032093;28;88839;-57
2023/08/08 05:53:07;;;;;;;;;;;21.00;54.80;;;;;;5026760;28;89356;-56
2023/08/08 05:55:33;;;;;;;;;;;21.00;54.80;;;;;;5028206;28;87578;-54
2023/08/08 05:57:58;;;;;;;;;;;20.90;54.90;;;;;;5031467;28;87843;-55
2023/08/08 06:00:24;;;;;;;;;;;20.90;54.80;;;;;;5026957;28;88380;-56
2023/08/08 06:02:49;;;;;;;;;;;21.00;54.80;;;;;;5022670;27;87380;-56
2023/08/08 06:05:16;;;;;;;;;;;20.90;54.90;;;;;;5028625;28;87448;-54
2023/08/08 06:07:41;;;;;;;;;;;20.90;54.70;;;;;;5034083;28;87109;-56
2023/08/08 06:10:08;;;;;;;;;;;20.90;54.80;;;;;;5023551;28;87297;-53
2023/08/08 06:12:33;;;;;;;;;;;20.90;54.70;;;;;;5022437;28;88034;-52
2023/08/08 06:14:59;;;;;;;;;;;20.90;54.90;;;;;;5023837;28;87200;-54
2023/08/08 06:17:24;;;;;;;;;;;20.80;54.90;;;;;;5031754;28;88451;-56
2023/08/08 06:19:50;;;;;;;;;;;20.80;54.90;;;;;;5025664;28;87951;-57
2023/08/08 06:22:16;;;;;;;;;;;20.80;54.90;;;;;;5025418;28;88009;-55
2023/08/08 06:24:41;;;;;;;;;;;20.80;54.90;;;;;;5031697;28;87795;-56
2023/08/08 06:27:07;;;;;;;;;;;20.80;54.90;;;;;;5035130;28;88401;-56
2023/08/08 06:29:32;;;;;;;;;;;20.80;54.90;;;;;;5027901;28;87561;-52
2023/08/08 06:31:58;;;;;;;;;;;20.80;54.90;;;;;;5026084;28;89213;-57
2023/08/08 06:34:23;;;;;;;;;;;20.80;54.90;;;;;;5033992;28;86393;-55
2023/08/08 06:36:49;;;;;;;;;;;20.80;54.80;;;;;;5027206;28;87171;-57
2023/08/08 06:39:14;;;;;;;;;;;20.80;54.90;;;;;;5018500;28;88187;-57
2023/08/08 06:41:40;;;;;;;;;;;20.80;54.90;;;;;;5023304;28;89322;-58
2023/08/08 06:44:07;;;;;;;;;;;20.80;54.80;;;;;;5031184;28;89942;-54
2023/08/08 06:46:32;;;;;;;;;;;20.90;54.80;;;;;;5029157;28;87318;-54
2023/08/08 06:48:59;;;;;;;;;;;20.80;54.90;;;;;;5027705;28;87285;-55
2023/08/08 06:51:25;;;;;;;;;;;20.80;55.60;;;;;;5031497;28;88041;-55
2023/08/08 06:53:51;;;;;;;;;;;20.80;55.00;;;;;;5030968;28;87663;-55
2023/08/08 06:56:16;;;;;;;;;;;20.80;55.10;;;;;;5030505;28;87936;-58
2023/08/08 06:58:41;;;;;;;;;;;20.80;55.10;;;;;;5016034;28;88148;-55
2023/08/08 07:01:07;;;;;;;;;;;20.80;55.10;;;;;;5031025;28;87154;-57
2023/08/08 07:03:32;;;;;;;;;;;20.70;55.20;;;;;;5032284;28;87548;-58
2023/08/08 07:05:58;;;;;;;;;;;20.70;55.10;;;;;;5024861;28;90375;-55
2023/08/08 07:08:23;;;;;;;;;;;20.80;55.10;;;;;;5029716;28;87292;-54
2023/08/08 07:10:49;;;;;;;;;;;20.80;55.00;;;;;;5029146;28;88129;-54
2023/08/08 07:13:15;;;;;;;;;;;20.80;55.10;;;;;;5033804;28;87192;-56
2023/08/08 07:15:41;;;;;;;;;;;20.80;55.10;;;;;;5023155;28;87371;-57
2023/08/08 07:18:06;;;;;;;;;;;20.70;55.10;;;;;;5023832;28;87237;-54
2023/08/08 07:20:32;;;;;;;;;;;20.70;55.20;;;;;;5033653;28;87115;-58
2023/08/08 07:22:59;;;;;;;;;;;20.70;55.00;;;;;;5031356;28;87487;-57
2023/08/08 07:25:24;;;;;;;;;;;20.70;55.10;;;;;;5019708;28;88041;-57
2023/08/08 07:27:50;;;;;;;;;;;20.70;55.00;;;;;;5027052;28;87163;-56
2023/08/08 07:30:15;;;;;;;;;;;20.70;55.20;;;;;;5031623;28;88161;-58
2023/08/08 07:32:41;;;;;;;;;;;20.70;55.10;;;;;;5031734;28;87824;-55
2023/08/08 07:35:08;;;;;;;;;;;20.70;55.20;;;;;;5018432;28;88985;-56
2023/08/08 07:37:34;;;;;;;;;;;20.70;55.20;;;;;;5025178;28;88012;-55
2023/08/08 07:40:00;;;;;;;;;;;20.70;55.20;;;;;;5030862;28;87072;-55
2023/08/08 07:42:26;;;;;;;;;;;20.70;55.10;;;;;;5021086;28;88178;-54
2023/08/08 07:44:51;;;;;;;;;;;20.70;55.20;;;;;;5021785;28;88072;-55
2023/08/08 07:47:17;;;;;;;;;;;20.70;55.20;;;;;;5029167;28;86509;-56
2023/08/08 07:49:42;;;;;;;;;;;20.70;55.00;;;;;;5033381;28;86995;-57
2023/08/08 07:52:08;;;;;;;;;;;20.70;55.00;;;;;;5027972;28;88039;-56
2023/08/08 07:54:34;;;;;;;;;;;20.70;55.00;;;;;;5026321;28;89698;-58
2023/08/08 07:56:59;;;;;;;;;;;20.70;55.10;;;;;;5024394;28;88078;-56
2023/08/08 07:59:25;;;;;;;;;;;20.60;55.00;;;;;;5031627;28;87107;-54
2023/08/08 08:01:50;;;;;;;;;;;20.60;55.10;;;;;;5022718;28;88029;-54
2023/08/08 08:04:16;;;;;;;;;;;20.60;55.00;;;;;;5021630;28;88251;-57
2023/08/08 08:06:41;;;;;;;;;;;20.70;55.00;;;;;;5030353;28;87261;-55
2023/08/08 08:09:07;;;;;;;;;;;20.70;55.00;;;;;;5029957;28;87603;-57
2023/08/08 08:11:33;;;;;;;;;;;20.70;55.00;;;;;;5025331;27;88028;-56
2023/08/08 08:13:58;;;;;;;;;;;20.60;55.00;;;;;;5027379;28;87992;-53
2023/08/08 08:16:24;;;;;;;;;;;20.70;55.00;;;;;;5029932;28;88225;-55
2023/08/08 08:18:50;;;;;;;;;;;20.60;54.90;;;;;;5029433;28;88033;-57
2023/08/08 08:21:17;;;;;;;;;;;20.70;55.00;;;;;;5022381;28;88432;-54
2023/08/08 08:23:43;;;;;;;;;;;20.70;55.00;;;;;;5019305;28;89649;-55
2023/08/08 08:26:08;;;;;;;;;;;20.70;54.90;;;;;;5031294;28;87068;-52
2023/08/08 08:28:34;;;;;;;;;;;20.70;54.90;;;;;;5030180;28;88084;-52
2023/08/08 08:31:06;;;;;;;;;;;20.70;54.80;;;;;;5026747;28;87945;-53
2023/08/08 08:33:32;;;;;;;;;;;20.70;55.00;;;;;;5023369;28;87765;-55
2023/08/08 08:35:57;;;;;;;;;;;20.70;54.90;;;;;;5037269;28;87492;-55
2023/08/08 08:38:23;;;;;;;;;;;20.60;54.90;;;;;;5028320;28;87147;-58
2023/08/08 08:40:48;;;;;;;;;;;20.60;55.00;;;;;;5015348;28;87787;-53
2023/08/08 08:43:15;;;;;;;;;;;20.70;54.90;;;;;;5026913;28;88803;-53
2023/08/08 08:45:41;;;;;;;;;;;20.60;55.40;;;;;;5028975;28;87119;-54
2023/08/08 08:48:10;;;;;;;;;;;20.60;54.70;;;;;;5025684;28;86978;-58
2023/08/08 08:50:36;;;;;;;;;;;20.70;54.90;;;;;;5025246;28;87999;-58
2023/08/08 08:53:01;;;;;;;;;;;20.60;54.80;;;;;;5030764;28;87251;-56
2023/08/08 08:55:27;;;;;;;;;;;20.60;54.70;;;;;;5033953;28;87298;-55
2023/08/08 08:57:52;;;;;;;;;;;20.60;54.60;;;;;;5025392;28;87980;-52
2023/08/08 09:00:18;;;;;;;;;;;20.60;54.70;;;;;;5021804;28;87501;-52
2023/08/08 09:02:44;;;;;;;;;;;20.60;54.70;;;;;;5032387;28;87327;-56
2023/08/08 09:05:10;;;;;;;;;;;20.60;54.50;;;;;;5035053;28;87094;-53
2023/08/08 09:07:36;;;;;;;;;;;20.60;54.50;;;;;;5022842;28;88124;-56
2023/08/08 09:10:03;;;;;;;;;;;20.60;54.50;;;;;;5026554;28;89003;-55
2023/08/08 09:12:29;;;;;;;;;;;20.60;54.60;;;;;;5028355;28;87203;-56
2023/08/08 09:14:58;;;;;;;;;;;20.60;54.50;;;;;;5032043;28;88040;-52
2023/08/08 09:17:27;;;;;;;;;;;20.60;54.60;;;;;;5020605;27;88306;-55
2023/08/08 09:19:53;;;;;;;;;;;20.60;54.50;;;;;;5030762;28;87083;-52
2023/08/08 09:22:19;;;;;;;;;;;20.60;54.50;;;;;;5032028;28;88282;-54
2023/08/08 09:24:46;;;;;;;;;;;20.60;54.50;;;;;;5034210;28;86470;-57
2023/08/08 09:27:12;;;;;;;;;;;20.60;54.50;;;;;;5024140;28;88124;-56
2023/08/08 09:29:37;;;;;;;;;;;20.60;54.50;;;;;;5027584;28;89383;-54
2023/08/08 09:32:04;;;;;;;;;;;20.60;54.50;;;;;;5032620;28;88165;-54
2023/08/08 09:34:29;;;;;;;;;;;20.60;54.40;;;;;;5024879;28;88257;-57
2023/08/08 09:36:55;;;;;;;;;;;20.60;54.40;;;;;;5028467;28;87997;-53
2023/08/08 09:39:21;;;;;;;;;;;20.60;54.50;;;;;;5028641;28;87104;-53
2023/08/08 09:41:47;;;;;;;;;;;20.60;54.30;;;;;;5037273;28;89350;-57
2023/08/08 09:44:13;;;;;;;;;;;20.60;54.30;;;;;;5016345;28;88282;-54
2023/08/08 09:46:39;;;;;;;;;;;20.60;54.30;;;;;;5019355;28;88344;-56
2023/08/08 09:49:05;;;;;;;;;;;20.60;54.40;;;;;;5031969;28;87591;-52
2023/08/08 09:51:30;;;;;;;;;;;20.60;54.50;;;;;;5031892;28;86984;-55
2023/08/08 09:53:56;;;;;;;;;;;20.60;54.40;;;;;;5027953;28;88488;-57
2023/08/08 09:56:23;;;;;;;;;;;20.60;54.40;;;;;;5024474;28;88955;-55
2023/08/08 09:58:48;;;;;;;;;;;20.60;54.40;;;;;;5033785;28;87115;-54
2023/08/08 10:01:14;;;;;;;;;;;20.60;54.40;;;;;;5032453;28;87393;-52
2023/08/08 10:03:42;;;;;;;;;;;20.50;54.40;;;;;;5024756;28;87438;-56
2023/08/08 10:06:08;;;;;;;;;;;20.60;54.40;;;;;;5023994;28;87633;-55
2023/08/08 10:08:34;;;;;;;;;;;20.60;54.30;;;;;;5033733;28;87950;-58
2023/08/08 10:11:00;;;;;;;;;;;20.60;54.40;;;;;;5029204;28;87186;-54
2023/08/08 10:13:26;;;;;;;;;;;20.60;54.40;;;;;;5027017;28;87000;-57
2023/08/08 10:15:52;;;;;;;;;;;20.60;54.30;;;;;;5029604;28;88134;-52
2023/08/08 10:18:18;;;;;;;;;;;20.60;54.30;;;;;;5031006;28;87493;-51
2023/08/08 10:20:45;;;;;;;;;;;20.60;54.30;;;;;;5024857;28;88134;-57
2023/08/08 10:23:10;;;;;;;;;;;20.60;54.30;;;;;;5029583;28;89506;-55
2023/08/08 10:25:36;;;;;;;;;;;20.60;54.30;;;;;;5031868;28;87154;-56
2023/08/08 10:28:05;;;;;;;;;;;20.60;54.30;;;;;;5031883;28;88644;-56
2023/08/08 10:30:41;;;;;;;;;;;20.60;54.30;;;;;;5023356;28;87153;-57
2023/08/08 10:33:15;;;;;;;;;;;20.60;54.20;;;;;;5019269;28;88611;-54
2023/08/08 10:35:41;;;;;;;;;;;20.60;54.20;;;;;;5027220;28;87944;-57
2023/08/08 10:38:08;;;;;;;;;;;20.60;54.20;;;;;;5028398;28;86365;-55
2023/08/08 10:40:33;;;;;;;;;;;20.60;54.30;;;;;;5026049;28;87565;-58
2023/08/08 10:42:59;;;;;;;;;;;20.60;54.20;;;;;;5028602;28;87220;-55
2023/08/08 10:45:29;;;;;;;;;;;20.60;54.20;;;;;;5034610;28;88176;-56
2023/08/08 10:47:54;;;;;;;;;;;20.60;54.20;;;;;;5021777;28;87940;-57
2023/08/08 10:50:23;;;;;;;;;;;20.60;54.30;;;;;;5026098;28;87174;-56
2023/08/08 10:52:54;;;;;;;;;;;20.70;54.30;;;;;;5026572;28;87435;-54
2023/08/08 10:55:20;;;;;;;;;;;20.70;54.20;;;;;;5031387;28;89539;-53
2023/08/08 10:57:59;;;;;;;;;;;20.70;54.20;;;;;;5027574;28;87796;-51
2023/08/08 11:00:26;;;;;;;;;;;20.70;54.20;;;;;;5016307;28;87124;-58
2023/08/08 11:02:53;;;;;;;;;;;20.70;54.20;;;;;;5021266;28;86575;-57
2023/08/08 11:05:18;;;;;;;;;;;20.70;54.20;;;;;;5027922;28;87100;-52
2023/08/08 11:07:44;;;;;;;;;;;20.70;54.20;;;;;;5028751;28;87498;-54
2023/08/08 11:10:10;;;;;;;;;;;20.70;54.10;;;;;;5021619;28;88055;-56
2023/08/08 11:12:36;;;;;;;;;;;20.70;54.10;;;;;;5033199;28;88480;-55
2023/08/08 11:15:01;;;;;;;;;;;20.70;54.10;;;;;;5028313;28;88207;-53
2023/08/08 11:17:27;;;;;;;;;;;20.70;54.20;;;;;;5015896;28;87095;-56
2023/08/08 11:19:53;;;;;;;;;;;20.70;54.10;;;;;;5022039;28;87627;-53
2023/08/08 11:22:20;;;;;;;;;;;20.70;54.10;;;;;;5032921;28;88112;-54
2023/08/08 11:24:46;;;;;;;;;;;20.70;54.70;;;;;;5027989;28;87319;-56
2023/08/08 11:27:11;;;;;;;;;;;20.70;54.10;;;;;;5028700;28;88770;-55
2023/08/08 11:29:37;;;;;;;;;;;20.70;54.00;;;;;;5023076;28;88186;-58
2023/08/08 11:32:03;;;;;;;;;;;20.70;54.10;;;;;;5029367;28;87446;-55
2023/08/08 11:34:34;;;;;;;;;;;20.70;54.00;;;;;;5026316;28;89211;-57
2023/08/08 11:37:00;;;;;;;;;;;20.80;54.10;;;;;;5020645;28;87345;-55
2023/08/08 11:39:26;;;;;;;;;;;20.80;54.10;;;;;;5028646;28;87748;-55
2023/08/08 11:41:52;;;;;;;;;;;20.70;54.00;;;;;;5030628;28;89731;-58
2023/08/08 11:44:18;;;;;;;;;;;20.70;54.00;;;;;;5027573;28;87316;-56
2023/08/08 11:46:46;;;;;;;;;;;20.80;54.00;;;;;;5012957;28;87162;-57
2023/08/08 11:49:14;;;;;;;;;;;20.80;54.00;;;;;;5030081;28;88361;-57
2023/08/08 11:51:39;;;;;;;;;;;20.80;54.00;;;;;;5035357;28;86228;-58
2023/08/08 11:54:05;;;;;;;;;;;20.80;54.00;;;;;;5021644;28;88061;-59
2023/08/08 11:56:34;;;;;;;;;;;20.80;54.10;;;;;;5020310;28;87142;-58
2023/08/08 11:59:00;;;;;;;;;;;20.80;54.00;;;;;;5029537;28;87953;-53
2023/08/08 12:01:26;;;;;;;;;;;20.80;54.10;;;;;;5029515;28;89244;-56
2023/08/08 12:03:52;;;;;;;;;;;20.80;54.00;;;;;;5020556;28;87630;-56
2023/08/08 12:06:18;;;;;;;;;;;20.80;53.90;;;;;;5020333;28;88229;-56
2023/08/08 12:08:44;;;;;;;;;;;20.80;54.00;;;;;;5033465;28;87967;-56
2023/08/08 12:11:13;;;;;;;;;;;20.80;54.00;;;;;;5032705;27;87523;-56
2023/08/08 12:13:43;;;;;;;;;;;20.80;54.00;;;;;;5026942;27;88647;-57
2023/08/08 12:16:09;;;;;;;;;;;20.80;54.00;;;;;;5028376;28;86564;-57
2023/08/08 12:18:35;;;;;;;;;;;20.80;54.00;;;;;;5032486;28;87072;-57
2023/08/08 12:21:01;;;;;;;;;;;20.80;53.80;;;;;;5029533;28;88001;-51
2023/08/08 12:23:27;;;;;;;;;;;20.80;53.80;;;;;;5020206;28;88157;-56
2023/08/08 12:25:53;;;;;;;;;;;20.90;53.80;;;;;;5026594;28;88511;-54
2023/08/08 12:28:19;;;;;;;;;;;20.90;53.80;;;;;;5034909;28;87286;-54
2023/08/08 12:30:44;;;;;;;;;;;20.80;53.70;;;;;;5030200;28;87276;-54
2023/08/08 12:33:10;;;;;;;;;;;20.90;53.80;;;;;;5029070;28;87281;-54
2023/08/08 12:35:35;;;;;;;;;;;20.90;53.80;;;;;;5029187;28;87248;-55
2023/08/08 12:38:01;;;;;;;;;;;20.90;53.80;;;;;;5036592;28;87401;-55
2023/08/08 12:40:28;;;;;;;;;;;20.90;53.80;;;;;;5027163;28;88846;-58
2023/08/08 12:42:53;;;;;;;;;;;20.90;53.80;;;;;;5023988;28;87862;-52
2023/08/08 12:45:19;;;;;;;;;;;20.90;53.70;;;;;;5033321;28;87644;-57
2023/08/08 12:47:44;;;;;;;;;;;20.90;53.70;;;;;;5031576;28;89187;-56
2023/08/08 12:50:10;;;;;;;;;;;20.90;53.60;;;;;;5027313;28;87796;-53
2023/08/08 12:52:35;;;;;;;;;;;20.90;53.60;;;;;;5028881;28;87525;-51
2023/08/08 12:55:01;;;;;;;;;;;20.90;53.60;;;;;;5037260;28;89239;-53
2023/08/08 12:57:27;;;;;;;;;;;20.90;53.60;;;;;;5030060;28;87487;-58
2023/08/08 12:59:52;;;;;;;;;;;20.90;53.50;;;;;;5025083;28;87207;-56
2023/08/08 13:02:18;;;;;;;;;;;20.90;53.50;;;;;;5025588;28;87181;-56
2023/08/08 13:04:43;;;;;;;;;;;20.90;53.50;;;;;;5032526;28;87373;-56
2023/08/08 13:07:09;;;;;;;;;;;20.90;53.50;;;;;;5026330;28;88162;-53
2023/08/08 13:09:34;;;;;;;;;;;20.90;53.50;;;;;;5027337;28;88138;-57
2023/08/08 13:12:00;;;;;;;;;;;20.90;53.50;;;;;;5028445;28;88810;-56
2023/08/08 13:14:26;;;;;;;;;;;21.00;53.70;;;;;;5034763;28;88743;-56
2023/08/08 13:16:51;;;;;;;;;;;21.00;53.60;;;;;;5026294;27;87565;-57
2023/08/08 13:19:20;;;;;;;;;;;21.00;52.90;;;;;;5019007;28;88224;-59
2023/08/08 13:21:46;;;;;;;;;;;21.00;52.50;;;;;;5031305;27;87205;-48
2023/08/08 13:24:12;;;;;;;;;;;21.00;52.80;;;;;;5033764;28;87294;-49
2023/08/08 13:26:38;;;;;;;;;;;21.10;53.40;;;;;;5028476;28;89409;-48
2023/08/08 13:29:04;;;;;;;;;;;21.00;53.90;;;;;;5023643;28;86458;-51
2023/08/08 13:31:29;;;;;;;;;;;21.10;53.00;;;;;;5032804;28;87191;-49
2023/08/08 13:33:55;;;;;;;;;;;21.10;52.50;;;;;;5029553;28;88313;-52
2023/08/08 13:36:20;;;;;;;;;;;21.20;52.10;;;;;;5029126;28;88150;-55
2023/08/08 13:38:46;;;;;;;;;;;21.30;51.20;;;;;;5028779;28;87481;-57
2023/08/08 13:41:11;;;;;;;;;;;21.40;51.50;;;;;;5034990;28;87413;-55
2023/08/08 13:43:37;;;;;;;;;;;21.40;50.60;;;;;;5026277;28;87394;-45
2023/08/08 13:46:07;;;;;;;;;;;21.40;50.70;;;;;;5022577;28;87172;-45
2023/08/08 13:48:33;;;;;;;;;;;21.40;50.10;;;;;;5023805;28;88472;-47
2023/08/08 13:50:58;;;;;;;;;;;21.40;49.80;;;;;;5033924;28;87418;-48
2023/08/08 13:53:24;;;;;;;;;;;21.50;49.40;;;;;;5030303;28;87486;-45
2023/08/08 13:55:49;;;;;;;;;;;21.50;49.80;;;;;;5017889;28;88237;-50
2023/08/08 13:58:15;;;;;;;;;;;21.50;50.20;;;;;;5030189;28;88854;-50
2023/08/08 14:00:40;;;;;;;;;;;21.50;50.60;;;;;;5029952;28;88023;-50
2023/08/08 14:03:06;;;;;;;;;;;21.50;50.40;;;;;;5027790;28;90091;-47
2023/08/08 14:05:32;;;;;;;;;;;21.50;51.00;;;;;;5019333;28;88132;-47
2023/08/08 14:07:57;;;;;;;;;;;21.50;50.60;;;;;;5027693;28;87294;-51